Time;durP1;ratioP1;P1;durP2;ratioP2;P2;SDS_P1;SDS_P2;PMS_P1;PMS_P2;Temp;Humidity;BMP_temperature;BMP_pressure;BME280_temperature;BME280_humidity;BME280_pressure;Samples;Min_cycle;Max_cycle;Signal;HPM_P1;HPM_P2
2023/06/18 00:02:01;;;;;;;0.38;0.38;;;15.30;99.90;;;;;;5064550;28;20386;-77
2023/06/18 00:04:27;;;;;;;0.35;0.35;;;15.10;99.90;;;;;;5058526;28;20540;-77
2023/06/18 00:06:56;;;;;;;1.10;0.52;;;15.10;99.90;;;;;;5066116;28;20109;-77
2023/06/18 00:09:22;;;;;;;0.45;0.45;;;15.00;99.90;;;;;;5064877;28;20048;-78
2023/06/18 00:11:49;;;;;;;0.57;0.57;;;15.00;99.90;;;;;;5058626;28;20047;-78
2023/06/18 00:14:15;;;;;;;0.60;0.60;;;15.00;99.90;;;;;;5063970;28;20147;-78
2023/06/18 00:16:41;;;;;;;0.45;0.45;;;14.90;99.90;;;;;;5066667;28;20115;-78
2023/06/18 00:19:07;;;;;;;0.52;0.52;;;14.90;99.90;;;;;;5063100;28;20127;-78
2023/06/18 00:21:32;;;;;;;0.85;0.85;;;14.80;99.90;;;;;;5064202;28;20052;-78
2023/06/18 00:23:58;;;;;;;0.73;0.73;;;14.80;99.90;;;;;;5068126;28;20618;-78
2023/06/18 00:26:25;;;;;;;2.38;1.58;;;14.90;99.90;;;;;;5059022;28;20128;-78
2023/06/18 00:28:51;;;;;;;0.52;0.52;;;14.90;99.90;;;;;;5065224;28;20053;-78
2023/06/18 00:31:17;;;;;;;4.95;0.73;;;14.90;99.90;;;;;;5054893;28;20798;-78
2023/06/18 00:33:44;;;;;;;1.80;1.27;;;14.70;99.90;;;;;;5063046;28;20528;-78
2023/06/18 00:36:10;;;;;;;0.90;0.90;;;14.70;99.90;;;;;;5068153;28;20056;-77
2023/06/18 00:38:36;;;;;;;0.50;0.50;;;14.70;99.90;;;;;;5086139;28;20040;-78
2023/06/18 00:41:03;;;;;;;0.75;0.60;;;14.70;99.90;;;;;;5066009;28;20040;-78
2023/06/18 00:43:28;;;;;;;1.20;0.60;;;14.70;99.90;;;;;;5061902;28;20541;-77
2023/06/18 00:45:59;;;;;;;0.57;0.47;;;14.70;99.90;;;;;;5065006;28;20048;-77
2023/06/18 00:48:31;;;;;;;2.35;1.10;;;14.60;99.90;;;;;;5070698;28;20044;-78
2023/06/18 00:50:58;;;;;;;0.73;0.73;;;14.50;99.90;;;;;;5064724;28;20052;-78
2023/06/18 00:53:25;;;;;;;0.98;0.93;;;14.70;99.90;;;;;;5071171;28;20043;-77
2023/06/18 00:55:52;;;;;;;1.02;0.93;;;14.60;99.90;;;;;;5066420;28;20049;-77
2023/06/18 00:58:18;;;;;;;0.82;0.82;;;14.50;99.90;;;;;;5070084;28;20148;-77
2023/06/18 01:00:44;;;;;;;0.50;0.50;;;14.50;99.90;;;;;;5069207;28;20051;-77
2023/06/18 01:03:18;;;;;;;0.73;0.73;;;14.50;99.90;;;;;;5066730;28;20366;-77
2023/06/18 01:05:47;;;;;;;1.83;0.88;;;14.50;99.90;;;;;;5067155;28;20409;-77
2023/06/18 01:08:14;;;;;;;0.30;0.30;;;14.50;99.90;;;;;;5068079;28;20032;-77
2023/06/18 01:10:40;;;;;;;1.15;1.05;;;14.60;99.90;;;;;;5069837;28;20106;-77
2023/06/18 01:13:14;;;;;;;1.27;1.20;;;14.30;99.90;;;;;;5066269;28;20068;-78
2023/06/18 01:15:40;;;;;;;0.93;0.40;;;14.40;99.90;;;;;;5064642;28;20123;-77
2023/06/18 01:18:07;;;;;;;0.80;0.80;;;14.20;99.90;;;;;;5056348;28;20123;-77
2023/06/18 01:20:41;;;;;;;5.95;1.23;;;14.30;99.90;;;;;;5062161;28;20053;-77
2023/06/18 01:23:24;;;;;;;2.15;0.85;;;14.30;99.90;;;;;;5054298;28;20486;-78
2023/06/18 01:25:50;;;;;;;0.40;0.40;;;14.30;99.90;;;;;;5064801;28;20102;-77
2023/06/18 01:28:16;;;;;;;0.95;0.95;;;14.40;99.90;;;;;;5068768;28;20052;-77
2023/06/18 01:30:42;;;;;;;0.40;0.40;;;14.10;99.90;;;;;;5056841;28;20048;-78
2023/06/18 01:33:12;;;;;;;0.60;0.60;;;14.00;99.90;;;;;;5069661;28;20110;-77
2023/06/18 01:35:38;;;;;;;1.08;0.82;;;14.00;99.90;;;;;;5064619;28;20069;-77
2023/06/18 01:38:36;;;;;;;0.57;0.57;;;14.20;99.90;;;;;;5062999;28;20068;-77
2023/06/18 01:41:11;;;;;;;0.60;0.60;;;14.10;99.90;;;;;;5066055;28;20054;-77
2023/06/18 01:43:46;;;;;;;0.30;0.30;;;14.10;99.90;;;;;;5059567;28;20063;-77
2023/06/18 01:46:16;;;;;;;1.50;1.15;;;14.00;99.90;;;;;;5065834;28;20489;-78
2023/06/18 01:48:45;;;;;;;0.40;0.40;;;13.90;99.90;;;;;;5062273;28;20125;-77
2023/06/18 01:51:12;;;;;;;0.30;0.30;;;13.90;99.90;;;;;;5068864;28;20074;-77
2023/06/18 01:53:40;;;;;;;0.80;0.50;;;14.10;99.90;;;;;;5053788;28;20045;-77
2023/06/18 01:56:09;;;;;;;0.65;0.65;;;14.00;99.90;;;;;;5059785;28;20158;-77
2023/06/18 01:58:36;;;;;;;0.38;0.38;;;14.00;99.90;;;;;;5062658;28;20113;-78
2023/06/18 02:01:02;;;;;;;0.70;0.70;;;13.80;99.90;;;;;;5062240;28;20444;-77
2023/06/18 02:03:29;;;;;;;0.70;0.70;;;13.80;99.90;;;;;;5069156;28;20078;-77
2023/06/18 02:05:55;;;;;;;0.47;0.47;;;13.80;99.90;;;;;;5063026;28;20044;-77
2023/06/18 02:08:21;;;;;;;0.55;0.55;;;13.80;99.90;;;;;;5066832;28;20048;-77
2023/06/18 02:10:47;;;;;;;0.30;0.30;;;13.80;99.90;;;;;;5064222;28;20044;-78
2023/06/18 02:13:12;;;;;;;0.43;0.43;;;13.60;99.90;;;;;;5067369;28;20748;-78
2023/06/18 02:15:40;;;;;;;0.50;0.50;;;13.60;99.90;;;;;;5067604;28;20044;-77
2023/06/18 02:18:06;;;;;;;0.50;0.50;;;13.70;99.90;;;;;;5065700;28;20460;-77
2023/06/18 02:20:32;;;;;;;0.80;0.80;;;13.50;99.90;;;;;;5064114;28;20508;-78
2023/06/18 02:22:58;;;;;;;1.65;0.63;;;13.50;99.90;;;;;;5057395;28;20057;-77
2023/06/18 02:25:29;;;;;;;0.60;0.60;;;13.50;99.90;;;;;;5050666;28;20130;-77
2023/06/18 02:27:59;;;;;;;0.47;0.40;;;13.50;99.90;;;;;;5055176;28;20056;-77
2023/06/18 02:30:25;;;;;;;6.90;0.88;;;13.60;99.90;;;;;;5058231;28;20044;-78
2023/06/18 02:32:52;;;;;;;0.38;0.38;;;13.50;99.90;;;;;;5059359;28;20803;-77
2023/06/18 02:35:19;;;;;;;0.55;0.55;;;13.60;99.90;;;;;;5064101;28;20123;-77
2023/06/18 02:37:44;;;;;;;0.70;0.70;;;13.50;99.90;;;;;;5049764;28;20111;-78
2023/06/18 02:40:14;;;;;;;1.48;1.15;;;13.50;99.90;;;;;;5068199;28;20048;-77
2023/06/18 02:42:47;;;;;;;0.63;0.63;;;13.50;99.90;;;;;;5064767;28;20048;-78
2023/06/18 02:45:21;;;;;;;2.92;0.85;;;13.30;99.90;;;;;;5059064;28;20071;-77
2023/06/18 02:47:48;;;;;;;0.80;0.80;;;13.20;99.90;;;;;;5050760;28;20101;-78
2023/06/18 02:50:15;;;;;;;0.47;0.47;;;13.20;99.90;;;;;;5067439;28;20735;-78
2023/06/18 02:52:41;;;;;;;1.17;0.95;;;13.20;99.90;;;;;;5064660;28;20489;-79
2023/06/18 02:55:08;;;;;;;0.30;0.30;;;13.10;99.90;;;;;;5064926;28;20068;-79
2023/06/18 02:57:34;;;;;;;2.63;0.32;;;13.10;99.90;;;;;;5059472;28;20164;-78
2023/06/18 03:00:04;;;;;;;1.17;0.60;;;13.10;99.90;;;;;;5060393;28;20090;-79
2023/06/18 03:02:30;;;;;;;0.30;0.30;;;13.20;99.90;;;;;;5060887;28;20040;-78
2023/06/18 03:04:56;;;;;;;0.85;0.85;;;12.90;99.90;;;;;;5067625;28;20071;-78
2023/06/18 03:07:22;;;;;;;0.63;0.63;;;12.80;99.90;;;;;;5064086;28;20060;-79
2023/06/18 03:09:47;;;;;;;0.80;0.68;;;13.00;99.90;;;;;;5062226;28;20048;-78
2023/06/18 03:12:13;;;;;;;0.73;0.73;;;12.80;99.90;;;;;;5065371;28;20048;-78
2023/06/18 03:14:39;;;;;;;0.60;0.60;;;12.50;99.90;;;;;;5065591;28;20171;-78
2023/06/18 03:17:04;;;;;;;0.63;0.63;;;12.80;99.90;;;;;;5058505;28;20058;-78
2023/06/18 03:19:30;;;;;;;0.55;0.55;;;12.50;99.90;;;;;;5055957;28;20045;-77
2023/06/18 03:21:57;;;;;;;0.30;0.30;;;12.60;99.90;;;;;;5057239;28;20047;-77
2023/06/18 03:24:24;;;;;;;1.25;1.25;;;12.70;99.90;;;;;;5067308;28;20041;-77
2023/06/18 03:26:50;;;;;;;0.28;0.28;;;12.80;99.90;;;;;;5066668;28;20044;-77
2023/06/18 03:29:16;;;;;;;0.40;0.40;;;12.60;99.90;;;;;;5064815;28;20621;-77
2023/06/18 03:31:42;;;;;;;1.20;1.10;;;12.70;99.90;;;;;;5059950;28;20257;-77
2023/06/18 03:34:08;;;;;;;0.75;0.75;;;12.70;99.90;;;;;;5062129;28;20150;-77
2023/06/18 03:36:39;;;;;;;0.60;0.60;;;12.60;99.90;;;;;;5059557;28;20501;-77
2023/06/18 03:39:06;;;;;;;2.30;1.13;;;12.70;99.90;;;;;;5061840;28;20056;-77
2023/06/18 03:41:31;;;;;;;0.40;0.40;;;12.80;99.90;;;;;;5057948;28;20083;-77
2023/06/18 03:43:57;;;;;;;0.55;0.55;;;12.80;99.90;;;;;;5058957;28;20037;-77
2023/06/18 03:46:23;;;;;;;0.30;0.30;;;12.70;99.90;;;;;;5065212;28;20140;-77
2023/06/18 03:48:48;;;;;;;0.30;0.30;;;12.70;99.90;;;;;;5061129;28;20477;-77
2023/06/18 03:51:15;;;;;;;0.95;0.95;;;12.80;99.90;;;;;;5067600;28;20051;-77
2023/06/18 03:53:40;;;;;;;0.40;0.40;;;12.80;99.90;;;;;;5062299;28;20052;-76
2023/06/18 03:56:07;;;;;;;0.30;0.30;;;12.80;99.90;;;;;;5064660;28;20393;-77
2023/06/18 03:58:33;;;;;;;0.30;0.30;;;12.80;99.90;;;;;;5056758;28;20049;-77
2023/06/18 04:00:59;;;;;;;0.45;0.45;;;12.90;99.90;;;;;;5065253;28;20759;-77
2023/06/18 04:03:24;;;;;;;1.40;1.20;;;12.90;99.90;;;;;;5062941;28;20655;-77
2023/06/18 04:05:50;;;;;;;1.20;1.17;;;12.80;99.90;;;;;;5048941;28;20071;-78
2023/06/18 04:08:16;;;;;;;0.98;0.73;;;12.70;99.90;;;;;;5063128;28;20401;-78
2023/06/18 04:10:43;;;;;;;0.73;0.73;;;13.00;99.90;;;;;;5067936;28;20044;-78
2023/06/18 04:13:15;;;;;;;0.60;0.60;;;13.00;99.90;;;;;;5069455;28;20478;-77
2023/06/18 04:15:42;;;;;;;0.70;0.70;;;12.90;99.90;;;;;;5058045;28;20060;-78
2023/06/18 04:18:08;;;;;;;0.60;0.60;;;13.00;99.90;;;;;;5070576;28;20048;-79
2023/06/18 04:20:34;;;;;;;0.45;0.45;;;13.10;99.90;;;;;;5057431;28;20082;-79
2023/06/18 04:23:00;;;;;;;0.68;0.68;;;13.10;99.90;;;;;;5066384;28;20052;-79
2023/06/18 04:25:26;;;;;;;0.22;0.22;;;13.30;99.90;;;;;;5068608;28;20555;-78
2023/06/18 04:27:52;;;;;;;0.85;0.60;;;13.30;99.90;;;;;;5065715;28;20048;-78
2023/06/18 04:30:18;;;;;;;1.25;1.02;;;13.30;99.90;;;;;;5066132;28;20479;-78
2023/06/18 04:32:44;;;;;;;0.90;0.90;;;13.50;99.90;;;;;;5068976;28;20079;-77
2023/06/18 04:35:10;;;;;;;2.30;1.48;;;13.30;99.90;;;;;;5061356;28;20139;-78
2023/06/18 04:37:36;;;;;;;1.90;1.42;;;13.40;99.90;;;;;;5065463;28;20123;-78
2023/06/18 04:40:05;;;;;;;4.38;1.58;;;13.50;99.90;;;;;;5065272;28;20080;-78
2023/06/18 04:42:31;;;;;;;3.10;2.42;;;13.50;99.90;;;;;;5069906;28;20096;-78
2023/06/18 04:44:57;;;;;;;2.95;2.72;;;13.40;99.90;;;;;;5061862;28;20139;-80
2023/06/18 04:47:23;;;;;;;7.32;1.85;;;13.40;99.90;;;;;;5069838;28;20086;-78
2023/06/18 04:49:49;;;;;;;2.88;1.80;;;13.50;99.90;;;;;;5063577;28;20063;-77
2023/06/18 04:52:14;;;;;;;3.17;2.92;;;13.50;99.90;;;;;;5056558;28;20045;-77
2023/06/18 04:54:43;;;;;;;1.17;1.15;;;13.80;99.90;;;;;;5060574;28;20136;-78
2023/06/18 04:57:10;;;;;;;2.80;2.60;;;13.90;99.90;;;;;;5064457;28;20102;-77
2023/06/18 04:59:39;;;;;;;3.47;3.17;;;13.60;99.90;;;;;;5068914;28;20106;-78
2023/06/18 05:02:06;;;;;;;3.10;2.58;;;13.70;99.90;;;;;;5064689;28;20044;-78
2023/06/18 05:04:32;;;;;;;7.47;3.58;;;13.70;99.90;;;;;;5062009;28;20037;-77
2023/06/18 05:06:58;;;;;;;6.55;4.43;;;14.10;99.90;;;;;;5065277;28;20126;-77
2023/06/18 05:09:26;;;;;;;3.17;2.92;;;13.80;99.90;;;;;;5063122;28;20068;-77
2023/06/18 05:11:52;;;;;;;3.47;1.67;;;14.00;99.90;;;;;;5067374;28;20480;-77
2023/06/18 05:14:18;;;;;;;1.33;1.33;;;14.10;99.90;;;;;;5065100;28;20090;-78
2023/06/18 05:16:44;;;;;;;4.00;2.97;;;14.20;99.90;;;;;;5064217;28;20036;-78
2023/06/18 05:19:10;;;;;;;2.33;2.08;;;14.30;99.90;;;;;;5067816;28;20396;-77
2023/06/18 05:21:35;;;;;;;2.15;1.95;;;14.40;99.90;;;;;;5062282;28;20049;-78
2023/06/18 05:24:01;;;;;;;2.25;1.88;;;14.30;99.90;;;;;;5063371;28;20135;-77
2023/06/18 05:26:27;;;;;;;2.15;1.38;;;14.50;99.90;;;;;;5059475;28;20049;-77
2023/06/18 05:28:52;;;;;;;5.88;3.08;;;14.70;99.90;;;;;;5055600;28;20642;-78
2023/06/18 05:31:18;;;;;;;6.00;2.50;;;14.60;99.90;;;;;;5063194;28;20086;-78
2023/06/18 05:33:44;;;;;;;2.20;2.10;;;14.50;99.90;;;;;;5069696;28;20512;-76
2023/06/18 05:36:10;;;;;;;1.20;1.17;;;14.70;99.90;;;;;;5066496;28;20040;-77
2023/06/18 05:38:36;;;;;;;6.57;1.70;;;14.90;99.90;;;;;;5068405;28;20416;-77
2023/06/18 05:41:01;;;;;;;2.67;2.15;;;15.10;99.90;;;;;;5063008;28;20044;-78
2023/06/18 05:43:28;;;;;;;6.43;3.42;;;15.10;99.90;;;;;;5068565;28;20398;-77
2023/06/18 05:45:54;;;;;;;3.08;2.75;;;15.10;99.90;;;;;;5060506;28;20406;-77
2023/06/18 05:48:19;;;;;;;1.80;1.67;;;15.30;99.90;;;;;;5064590;28;20041;-78
2023/06/18 05:50:45;;;;;;;3.03;2.17;;;15.30;99.90;;;;;;5068689;28;20044;-77
2023/06/18 05:53:11;;;;;;;1.85;1.75;;;15.30;99.90;;;;;;5060396;28;20113;-77
2023/06/18 05:55:36;;;;;;;2.20;1.92;;;15.70;99.90;;;;;;5063002;28;20637;-78
2023/06/18 05:58:02;;;;;;;9.65;5.30;;;15.60;99.90;;;;;;5067692;28;20040;-78
2023/06/18 06:00:28;;;;;;;7.97;4.57;;;15.90;99.90;;;;;;5060671;28;20120;-78
2023/06/18 06:02:53;;;;;;;5.18;4.70;;;16.00;99.90;;;;;;5064200;28;20048;-77
2023/06/18 06:05:20;;;;;;;2.38;2.17;;;16.10;99.90;;;;;;5065652;28;20045;-77
2023/06/18 06:07:46;;;;;;;6.38;4.68;;;16.00;99.90;;;;;;5068298;28;20663;-77
2023/06/18 06:10:14;;;;;;;4.00;2.58;;;16.40;99.90;;;;;;5068552;28;20194;-77
2023/06/18 06:12:40;;;;;;;5.03;4.15;;;16.40;99.90;;;;;;5065395;28;20048;-80
2023/06/18 06:15:06;;;;;;;3.05;2.42;;;16.60;99.90;;;;;;5062045;28;20071;-80
2023/06/18 06:17:32;;;;;;;10.27;5.07;;;16.60;99.90;;;;;;5057402;28;20125;-81
2023/06/18 06:19:57;;;;;;;2.60;1.90;;;16.80;99.90;;;;;;5051255;28;20156;-81
2023/06/18 06:22:23;;;;;;;3.40;3.22;;;16.90;99.90;;;;;;5060549;28;20394;-79
2023/06/18 06:24:49;;;;;;;3.00;2.42;;;17.00;99.90;;;;;;5064991;28;20740;-80
2023/06/18 06:27:14;;;;;;;1.67;1.40;;;17.30;99.90;;;;;;5066821;28;20037;-80
2023/06/18 06:29:40;;;;;;;2.03;1.70;;;17.50;99.90;;;;;;5056338;28;20722;-78
2023/06/18 06:32:05;;;;;;;2.70;2.45;;;17.50;99.90;;;;;;5062770;28;20049;-78
2023/06/18 06:34:32;;;;;;;4.22;3.83;;;17.70;99.90;;;;;;5060157;28;20401;-80
2023/06/18 06:36:58;;;;;;;4.82;2.45;;;17.90;99.90;;;;;;5051765;28;20099;-81
2023/06/18 06:39:25;;;;;;;3.72;2.45;;;18.10;99.90;;;;;;5058707;28;20078;-78
2023/06/18 06:41:50;;;;;;;3.63;2.60;;;18.30;99.90;;;;;;5063541;28;20084;-78
2023/06/18 06:44:16;;;;;;;1.55;1.45;;;18.50;99.90;;;;;;5057582;28;20131;-77
2023/06/18 06:46:41;;;;;;;3.25;1.95;;;18.60;99.90;;;;;;5051946;28;20049;-78
2023/06/18 06:49:07;;;;;;;3.72;3.42;;;18.80;99.90;;;;;;5063665;28;20044;-78
2023/06/18 06:51:37;;;;;;;4.15;2.38;;;19.10;99.90;;;;;;5066981;28;20040;-78
2023/06/18 06:54:03;;;;;;;13.70;2.70;;;19.20;99.90;;;;;;5066789;28;20094;-78
2023/06/18 06:56:30;;;;;;;2.35;2.17;;;19.30;99.90;;;;;;5058981;28;20059;-78
2023/06/18 06:58:57;;;;;;;2.58;2.40;;;19.70;99.90;;;;;;5067653;28;20048;-78
2023/06/18 07:01:25;;;;;;;2.78;2.38;;;19.90;99.90;;;;;;5052289;28;20123;-78
2023/06/18 07:03:50;;;;;;;;;;;19.90;99.90;;;;;;5040237;28;20040;-78
2023/06/18 07:06:16;;;;;;;4.07;2.75;;;20.20;99.90;;;;;;5053762;28;19921;-78
2023/06/18 07:08:42;;;;;;;7.97;2.47;;;20.40;99.90;;;;;;5063310;28;20079;-78
2023/06/18 07:11:07;;;;;;;2.45;1.85;;;20.60;99.90;;;;;;5069164;28;20070;-78
2023/06/18 07:13:33;;;;;;;2.90;2.65;;;21.10;99.90;;;;;;5059256;28;20755;-78
2023/06/18 07:15:59;;;;;;;3.13;2.95;;;21.10;99.90;;;;;;5059935;28;20052;-78
2023/06/18 07:18:25;;;;;;;1.60;1.50;;;21.60;99.90;;;;;;5062239;28;20047;-79
2023/06/18 07:20:50;;;;;;;4.13;3.83;;;21.80;99.90;;;;;;5067679;28;20040;-78
2023/06/18 07:23:16;;;;;;;2.30;2.17;;;21.90;99.90;;;;;;5057857;28;20052;-78
2023/06/18 07:25:42;;;;;;;3.00;2.38;;;22.20;99.90;;;;;;5058313;28;20051;-77
2023/06/18 07:28:07;;;;;;;4.80;2.15;;;22.50;99.90;;;;;;5063950;28;20048;-78
2023/06/18 07:30:33;;;;;;;2.85;2.45;;;22.90;99.90;;;;;;5059192;28;20086;-78
2023/06/18 07:32:59;;;;;;;2.65;1.65;;;22.90;99.90;;;;;;5059371;28;20045;-78
2023/06/18 07:35:25;;;;;;;1.75;1.00;;;23.00;99.90;;;;;;5054715;28;20048;-78
2023/06/18 07:37:51;;;;;;;3.20;1.70;;;23.30;99.90;;;;;;5063490;28;20041;-78
2023/06/18 07:40:17;;;;;;;2.92;2.75;;;23.30;99.90;;;;;;5060796;28;20436;-78
2023/06/18 07:42:42;;;;;;;5.88;3.80;;;23.30;99.90;;;;;;5063893;28;20052;-78
2023/06/18 07:45:08;;;;;;;4.70;3.60;;;23.10;99.90;;;;;;5058540;28;20474;-78
2023/06/18 07:47:34;;;;;;;1.90;1.80;;;23.00;99.90;;;;;;5062444;28;20044;-78
2023/06/18 07:50:01;;;;;;;2.10;1.73;;;23.20;99.90;;;;;;5056788;28;20053;-78
2023/06/18 07:52:27;;;;;;;2.40;2.15;;;23.30;99.90;;;;;;5064327;28;20138;-78
2023/06/18 07:54:52;;;;;;;2.97;2.78;;;23.40;99.90;;;;;;5049620;28;20127;-79
2023/06/18 07:57:18;;;;;;;5.22;4.70;;;23.60;99.90;;;;;;5057043;28;20041;-79
2023/06/18 07:59:44;;;;;;;3.90;3.05;;;23.60;99.90;;;;;;5038390;28;20407;-77
2023/06/18 08:02:10;;;;;;;3.17;2.97;;;24.00;99.90;;;;;;5044672;28;20045;-77
2023/06/18 08:04:35;;;;;;;3.13;2.92;;;24.20;99.90;;;;;;5054053;28;20132;-77
2023/06/18 08:07:01;;;;;;;3.60;3.30;;;24.20;99.90;;;;;;5058855;28;20124;-77
2023/06/18 08:09:27;;;;;;;4.80;3.47;;;24.50;99.90;;;;;;5042615;28;20133;-77
2023/06/18 08:11:53;;;;;;;3.63;1.90;;;24.70;99.90;;;;;;5056493;28;20059;-78
2023/06/18 08:14:19;;;;;;;4.93;3.75;;;25.00;99.90;;;;;;5061661;28;20124;-79
2023/06/18 08:16:45;;;;;;;1.38;1.30;;;25.30;99.90;;;;;;5051099;28;20053;-79
2023/06/18 08:19:11;;;;;;;1.65;1.45;;;25.60;99.90;;;;;;5061917;28;20555;-79
2023/06/18 08:21:37;;;;;;;2.92;2.70;;;25.90;99.90;;;;;;5065542;28;20079;-78
2023/06/18 08:24:03;;;;;;;4.45;2.38;;;26.20;99.90;;;;;;5064022;28;20071;-79
2023/06/18 08:26:29;;;;;;;2.85;2.65;;;26.30;99.90;;;;;;5062197;28;20075;-78
2023/06/18 08:28:54;;;;;;;2.50;1.20;;;26.40;99.90;;;;;;5060291;28;20048;-79
2023/06/18 08:31:23;;;;;;;0.85;0.85;;;26.60;99.90;;;;;;5057373;28;20036;-79
2023/06/18 08:33:49;;;;;;;2.95;2.60;;;26.60;99.90;;;;;;5062980;28;20063;-79
2023/06/18 08:36:15;;;;;;;2.90;2.67;;;26.60;99.90;;;;;;5063661;28;20055;-79
2023/06/18 08:38:40;;;;;;;1.67;1.58;;;26.60;99.90;;;;;;5063275;28;20115;-79
2023/06/18 08:41:07;;;;;;;2.38;2.08;;;26.90;99.90;;;;;;5060916;28;20044;-79
2023/06/18 08:43:36;;;;;;;2.07;1.93;;;27.20;99.90;;;;;;5054472;28;20080;-79
2023/06/18 08:46:13;;;;;;;2.17;1.63;;;27.30;99.90;;;;;;5061005;28;20305;-79
2023/06/18 08:48:43;;;;;;;2.63;2.42;;;27.60;99.90;;;;;;5055319;28;20501;-80
2023/06/18 08:51:09;;;;;;;1.25;1.25;;;27.90;99.90;;;;;;5062949;28;20056;-81
2023/06/18 08:53:44;;;;;;;2.70;2.45;;;28.20;99.90;;;;;;5054368;28;20056;-81
2023/06/18 08:56:10;;;;;;;1.70;1.60;;;28.30;99.90;;;;;;5057980;28;20041;-81
2023/06/18 08:58:47;;;;;;;1.50;1.40;;;28.40;99.90;;;;;;5063607;28;20052;-82
2023/06/18 09:01:14;;;;;;;2.92;2.67;;;28.60;99.90;;;;;;5067047;28;20052;-82
2023/06/18 09:03:42;;;;;;;2.55;2.28;;;28.60;99.90;;;;;;5061601;28;20401;-81
2023/06/18 09:06:07;;;;;;;0.93;0.93;;;28.70;99.90;;;;;;5069258;28;20489;-82
2023/06/18 09:08:35;;;;;;;2.72;2.53;;;29.00;99.90;;;;;;5062393;28;20097;-82
2023/06/18 09:11:01;;;;;;;;;;;29.20;99.90;;;;;;5064118;28;20087;-82
2023/06/18 09:13:27;;;;;;;3.33;3.13;;;29.20;99.90;;;;;;5063583;28;20316;-82
2023/06/18 09:15:53;;;;;;;1.50;1.48;;;29.50;99.90;;;;;;5065048;28;20036;-82
2023/06/18 09:18:21;;;;;;;4.05;3.35;;;29.40;99.90;;;;;;5063451;28;20127;-80
2023/06/18 09:20:48;;;;;;;2.20;2.10;;;29.30;99.90;;;;;;5055914;28;20094;-80
2023/06/18 09:23:14;;;;;;;2.30;1.87;;;29.20;99.90;;;;;;5064696;28;20155;-80
2023/06/18 09:25:40;;;;;;;3.08;2.30;;;29.30;99.90;;;;;;5062626;28;20326;-82
2023/06/18 09:28:06;;;;;;;2.95;1.75;;;29.30;99.90;;;;;;5066278;28;20505;-82
2023/06/18 09:30:31;;;;;;;1.38;1.27;;;29.40;99.90;;;;;;5062842;28;20489;-82
2023/06/18 09:32:59;;;;;;;3.90;1.75;;;29.40;99.90;;;;;;5067162;28;20044;-82
2023/06/18 09:35:26;;;;;;;6.13;3.08;;;29.60;99.90;;;;;;5057734;28;20475;-82
2023/06/18 09:37:52;;;;;;;2.67;2.47;;;29.60;99.90;;;;;;5042931;28;20072;-82
2023/06/18 09:40:20;;;;;;;1.87;1.77;;;29.70;99.90;;;;;;5060455;28;20166;-81
2023/06/18 09:42:51;;;;;;;2.13;2.00;;;29.90;99.90;;;;;;5057736;28;20406;-82
2023/06/18 09:45:18;;;;;;;2.03;1.83;;;30.10;98.70;;;;;;5059466;28;20051;-82
2023/06/18 09:47:47;;;;;;;2.15;1.98;;;30.30;97.60;;;;;;5034682;28;20063;-81
2023/06/18 09:50:13;;;;;;;1.15;1.15;;;30.40;98.60;;;;;;5061347;28;20041;-83
2023/06/18 09:52:48;;;;;;;0.68;0.68;;;30.50;97.00;;;;;;5054043;28;20052;-83
2023/06/18 09:55:29;;;;;;;1.02;0.80;;;30.80;96.30;;;;;;5059350;28;20053;-82
2023/06/18 09:57:54;;;;;;;1.42;1.33;;;31.10;96.80;;;;;;5060276;28;20071;-82
2023/06/18 10:00:20;;;;;;;2.42;1.65;;;31.20;95.60;;;;;;5065018;28;20174;-82
2023/06/18 10:02:46;;;;;;;1.13;1.13;;;31.10;94.70;;;;;;5049091;28;20052;-82
2023/06/18 10:05:12;;;;;;;1.70;1.60;;;31.20;94.60;;;;;;5058107;28;20052;-82
2023/06/18 10:07:42;;;;;;;0.77;0.77;;;31.40;94.80;;;;;;5061004;28;20060;-82
2023/06/18 10:10:16;;;;;;;1.48;1.40;;;31.50;94.80;;;;;;5054330;28;20524;-81
2023/06/18 10:12:49;;;;;;;2.10;1.55;;;31.30;95.70;;;;;;5061048;28;20056;-82
2023/06/18 10:15:16;;;;;;;3.63;2.45;;;31.30;94.80;;;;;;5061313;28;20555;-82
2023/06/18 10:17:55;;;;;;;3.70;2.40;;;31.30;95.60;;;;;;5062048;28;20128;-82
2023/06/18 10:20:23;;;;;;;4.40;4.07;;;31.40;94.20;;;;;;5056621;28;20087;-83
2023/06/18 10:22:54;;;;;;;1.45;1.35;;;31.30;93.40;;;;;;5059507;28;20055;-82
2023/06/18 10:25:21;;;;;;;1.77;1.48;;;31.50;94.20;;;;;;5051891;28;20067;-82
2023/06/18 10:27:49;;;;;;;1.42;1.20;;;31.60;93.80;;;;;;5056199;28;20458;-81
2023/06/18 10:30:16;;;;;;;2.38;2.17;;;31.70;94.00;;;;;;5063977;28;20143;-82
2023/06/18 10:32:46;;;;;;;;;;;31.60;94.10;;;;;;5055590;28;20036;-82
2023/06/18 10:35:13;;;;;;;2.38;2.28;;;31.20;93.60;;;;;;5059375;28;19947;-82
2023/06/18 10:37:41;;;;;;;2.05;1.95;;;31.00;94.60;;;;;;5063066;28;20067;-82
2023/06/18 10:40:08;;;;;;;2.50;2.30;;;31.00;93.90;;;;;;5055708;28;20051;-82
2023/06/18 10:42:34;;;;;;;1.30;1.25;;;31.20;93.50;;;;;;5064669;28;20051;-82
2023/06/18 10:45:13;;;;;;;1.63;1.52;;;31.20;94.50;;;;;;5060929;28;20525;-84
2023/06/18 10:47:40;;;;;;;1.58;1.48;;;31.20;93.10;;;;;;5062646;28;20521;-82
2023/06/18 10:50:12;;;;;;;2.63;2.42;;;31.20;93.00;;;;;;5057661;28;20044;-82
2023/06/18 10:53:01;;;;;;;2.13;1.92;;;31.30;92.30;;;;;;5066354;28;20440;-82
2023/06/18 10:55:29;;;;;;;1.50;1.35;;;31.10;93.40;;;;;;5064410;28;20051;-82
2023/06/18 10:58:04;;;;;;;1.77;1.67;;;31.20;93.30;;;;;;5057631;28;20140;-82
2023/06/18 11:00:40;;;;;;;1.05;1.05;;;31.30;92.60;;;;;;5056643;28;20048;-82
2023/06/18 11:03:15;;;;;;;1.60;1.50;;;31.60;92.70;;;;;;5065353;28;20048;-82
2023/06/18 11:05:51;;;;;;;0.70;0.70;;;31.60;92.60;;;;;;5061230;28;20044;-81
2023/06/18 11:08:30;;;;;;;1.03;0.97;;;31.80;92.70;;;;;;5062374;28;20484;-81
2023/06/18 11:11:05;;;;;;;1.02;1.02;;;31.70;91.00;;;;;;5055398;28;20306;-80
2023/06/18 11:13:39;;;;;;;0.95;0.95;;;31.80;91.40;;;;;;5058746;28;20058;-80
2023/06/18 11:16:09;;;;;;;0.75;0.75;;;31.80;92.00;;;;;;5063923;28;20048;-80
2023/06/18 11:18:35;;;;;;;0.88;0.88;;;31.90;92.70;;;;;;5065351;28;20382;-81
2023/06/18 11:21:04;;;;;;;1.15;1.05;;;32.10;92.00;;;;;;5054811;28;20039;-81
2023/06/18 11:23:31;;;;;;;1.95;1.85;;;32.20;91.70;;;;;;5054967;28;20124;-81
2023/06/18 11:25:57;;;;;;;1.33;1.33;;;32.10;91.90;;;;;;5058820;28;20045;-80
2023/06/18 11:28:27;;;;;;;0.70;0.70;;;32.00;92.90;;;;;;5056662;28;20075;-79
2023/06/18 11:30:56;;;;;;;1.48;1.38;;;31.60;92.00;;;;;;5061927;28;20098;-81
2023/06/18 11:33:24;;;;;;;1.20;1.10;;;31.60;92.10;;;;;;5054295;28;20044;-80
2023/06/18 11:35:50;;;;;;;1.88;1.77;;;31.50;92.10;;;;;;5045458;28;20053;-80
2023/06/18 11:38:18;;;;;;;2.30;2.15;;;31.50;92.20;;;;;;5062899;28;20048;-81
2023/06/18 11:40:48;;;;;;;8.40;2.58;;;31.30;92.10;;;;;;5064057;28;20420;-80
2023/06/18 11:43:14;;;;;;;1.20;1.20;;;31.40;92.00;;;;;;5060146;28;20051;-81
2023/06/18 11:45:39;;;;;;;0.65;0.65;;;31.10;92.50;;;;;;5038579;28;20045;-81
2023/06/18 11:48:05;;;;;;;0.52;0.52;;;31.20;92.60;;;;;;5062409;28;20052;-82
2023/06/18 11:50:31;;;;;;;2.28;2.08;;;31.00;91.40;;;;;;5060719;28;20083;-80
2023/06/18 11:52:56;;;;;;;0.90;0.90;;;30.90;91.40;;;;;;5057310;28;20041;-81
2023/06/18 11:55:22;;;;;;;1.55;1.45;;;30.90;92.30;;;;;;5057974;28;20045;-81
2023/06/18 11:57:48;;;;;;;1.65;1.55;;;30.80;92.00;;;;;;5064336;28;20048;-81
2023/06/18 12:00:15;;;;;;;1.40;1.30;;;30.60;92.50;;;;;;5063140;28;20116;-83
2023/06/18 12:02:41;;;;;;;1.88;1.77;;;30.30;92.60;;;;;;5057445;28;20041;-82
2023/06/18 12:05:08;;;;;;;2.58;2.38;;;30.30;92.80;;;;;;5058733;28;20067;-82
2023/06/18 12:07:36;;;;;;;2.63;2.47;;;30.20;92.60;;;;;;5058413;28;20051;-82
2023/06/18 12:10:07;;;;;;;2.33;1.20;;;30.30;92.90;;;;;;5058431;28;20442;-82
2023/06/18 12:13:01;;;;;;;2.63;2.42;;;30.60;93.60;;;;;;5058309;28;20033;-82
2023/06/18 12:15:38;;;;;;;1.27;1.27;;;30.70;93.30;;;;;;5054167;28;20391;-82
2023/06/18 12:18:24;;;;;;;1.95;1.85;;;30.80;92.60;;;;;;5061311;28;20074;-82
2023/06/18 12:20:50;;;;;;;1.52;1.45;;;30.80;92.30;;;;;;5057689;28;20112;-83
2023/06/18 12:23:16;;;;;;;0.95;0.85;;;30.70;91.90;;;;;;5053985;28;20395;-82
2023/06/18 12:25:42;;;;;;;0.88;0.88;;;30.60;92.50;;;;;;5061418;28;20044;-83
2023/06/18 12:28:09;;;;;;;2.63;2.50;;;30.70;91.90;;;;;;5060045;28;20060;-82
2023/06/18 12:30:39;;;;;;;1.20;1.15;;;30.70;91.80;;;;;;5054649;28;20044;-83
2023/06/18 12:33:10;;;;;;;1.85;1.50;;;31.00;92.00;;;;;;5062726;28;20048;-82
2023/06/18 12:35:39;;;;;;;2.03;1.65;;;31.00;92.50;;;;;;5060135;28;20055;-83
2023/06/18 12:38:08;;;;;;;1.40;1.35;;;31.10;92.10;;;;;;5069460;28;20039;-82
2023/06/18 12:40:46;;;;;;;1.88;1.77;;;31.30;92.00;;;;;;5059806;28;20049;-82
2023/06/18 12:43:12;;;;;;;2.90;2.60;;;31.30;92.10;;;;;;5063580;28;20450;-82
2023/06/18 12:45:39;;;;;;;1.47;1.37;;;31.00;92.30;;;;;;5055727;28;20155;-82
2023/06/18 12:48:20;;;;;;;4.47;2.20;;;30.90;92.00;;;;;;5061424;28;20319;-80
2023/06/18 12:50:52;;;;;;;1.73;1.63;;;30.70;91.40;;;;;;5063553;28;20075;-79